Flight Track Log - Related Links

Times and Time Zones

All times are in EDT time to prevent confusion due to time zone crossing. See the QFA1100 flight status page for this flight to view local times or setup timezone preferences in your user account.

Time Position Orientation Groundspeed Altitude Reporting Facility
EDT Latitude Longitude Course Direction KTS MPH feet Rate Location/Type
Wed 01:57:14 AM -31.9320 115.9600 North  Level FlightAware ADS-B
Wed 01:57:49 AM -31.9310 115.9600 360° North 1 1 47 Level FlightAware ADS-B
Wed 02:00:00 AM -31.7138 116.0668 23° Northeast  Level Estimated
Wed 02:01:00 AM -31.6142 116.1156 23° Northeast  Level Estimated
Wed 02:01:14 AM -31.9310 115.9610 23° Northeast 7 8  Level FlightAware ADS-B
Wed 02:01:44 AM -31.9320 115.9620 140° Southeast 11 13 89 Level FlightAware ADS-B
Wed 02:02:21 AM -31.9310 115.9640 59° Northeast 11 13 100 Level FlightAware ADS-B
Wed 02:02:52 AM -31.9300 115.9650 40° Northeast 12 14 118 Level FlightAware ADS-B
Wed 02:03:17 AM -31.9290 115.9660 40° Northeast 12 14 140 Level FlightAware ADS-B
Wed 02:03:59 AM -31.9290 115.9670 90° East 1 1 163 Level FlightAware ADS-B
Wed 02:04:24 AM -31.9290 115.9680 90° East 8 9 229 Level FlightAware ADS-B
Wed 02:05:04 AM -31.9320 115.9670 196° South 72 83 300 Level FlightAware ADS-B
Wed 02:05:20 AM -31.9400 115.9650 192° South 125 144 600 Level FlightAware ADS-B
Wed 02:05:44 AM -31.9580 115.9600 193° South 154 177 400 1,778 Climbing FlightAware ADS-B
Wed 02:06:14 AM -31.9800 115.9540 195° South 163 188 1,600 2,160 Climbing FlightAware ADS-B
Wed 02:06:34 AM -31.9970 115.9500 191° South 194 223 2,200 2,700 Climbing FlightAware ADS-B
Wed 02:07:14 AM -32.0320 115.9670 158° South 218 251 4,300 2,836 Climbing FlightAware ADS-B
Wed 02:07:29 AM -32.0390 115.9850 115° Southeast 248 285 4,800 1,333 Climbing FlightAware ADS-B
Wed 02:07:59 AM -32.0490 116.0290 105° East 304 350 5,300 1,050 Climbing FlightAware ADS-B
Wed 02:08:09 AM -32.0530 116.0460 106° East 324 373 5,500 1,200 Climbing FlightAware ADS-B
Wed 02:08:39 AM -32.0660 116.1010 106° East 368 423 6,100 2,100 Climbing FlightAware ADS-B
Wed 02:09:09 AM -32.0800 116.1600 106° East 377 434 7,600 2,833 Climbing FlightAware ADS-B
Wed 02:09:51 AM -32.0660 116.2450 79° East 389 448 9,500 2,717 Climbing FlightAware ADS-B
Wed 02:10:02 AM -32.0540 116.2610 48° Northeast 385 443 10,000 2,618 Climbing FlightAware ADS-B
Wed 02:10:46 AM -31.9960 116.3320 46° Northeast 405 466 11,900 2,571 Climbing FlightAware ADS-B
Wed 02:11:26 AM -31.9449 116.3958 46° Northeast 411 473 13,600 2,550 Climbing Aus ATC (RADAR)
Wed 02:11:26 AM -31.9420 116.3990 46° Northeast 427 491 13,600 2,500 Level FlightAware ADS-B
Wed 02:12:02 AM -31.8920 116.4620 47° Northeast 438 504 15,100 2,214 Climbing FlightAware ADS-B
Wed 02:12:50 AM -31.8240 116.5470 47° Northeast 460 529 16,700 2,045 Climbing FlightAware ADS-B
Wed 02:13:30 AM -31.7640 116.6210 46° Northeast 473 544 18,100 2,386 Climbing FlightAware ADS-B
Wed 02:14:13 AM -31.7010 116.6990 46° Northeast 474 545 20,000 2,519 Climbing FlightAware ADS-B
Wed 02:14:51 AM -31.6452 116.7680 46° Northeast 469 540 21,500 2,233 Climbing Aus ATC (RADAR)
Wed 02:14:56 AM -31.6360 116.7790 46° Northeast 477 549 21,600 1,886 Climbing FlightAware ADS-B
Wed 02:15:26 AM -31.5910 116.8320 46° Northeast 468 539 22,600 1,784 Climbing Aus ATC (RADAR)
Wed 02:15:33 AM -31.5760 116.8430 46° Northeast 474 545 22,700 1,245 Climbing FlightAware ADS-B
Wed 02:16:19 AM -31.4840 116.8940 25° Northeast 466 536 23,700 1,341 Climbing FlightAware ADS-B
Wed 02:16:58 AM -31.4030 116.9310 21° North 482 555 24,600 1,520 Climbing FlightAware ADS-B
Wed 02:17:34 AM -31.3290 116.9650 21° North 484 557 25,600 1,407 Climbing FlightAware ADS-B
Wed 02:18:19 AM -31.2320 117.0100 22° Northeast 486 559 26,500 1,395 Climbing FlightAware ADS-B
Wed 02:19:00 AM -31.1470 117.0490 21° North 482 555 27,600 1,658 Climbing FlightAware ADS-B
Wed 02:19:35 AM -31.0740 117.0830 22° Northeast 487 560 28,600 1,500 Climbing FlightAware ADS-B
Wed 02:20:16 AM -30.9907 117.1211 22° Northeast 485 558 29,500 1,171 Climbing Aus ATC (RADAR)
Wed 02:20:16 AM -30.9870 117.1220 22° Northeast 482 555 29,400 800 Descending FlightAware ADS-B
Wed 02:21:01 AM -30.8910 117.1650 21° North 488 562 30,100 918 Climbing FlightAware ADS-B
Wed 02:21:41 AM -30.8060 117.2040 22° Northeast 499 574 30,700 963 Climbing FlightAware ADS-B
Wed 02:22:22 AM -30.7170 117.2450 22° Northeast 501 577 31,400 977 Climbing FlightAware ADS-B
Wed 02:23:07 AM -30.6190 117.2900 22° Northeast 504 580 32,100 988 Climbing FlightAware ADS-B
Wed 02:23:47 AM -30.5320 117.3290 21° North 505 581 32,800 1,151 Climbing FlightAware ADS-B
Wed 02:24:20 AM -30.4631 117.3613 21° North 505 581 33,500 1,024 Climbing Aus ATC (RADAR)
Wed 02:24:28 AM -30.4440 117.3690 21° North 504 580 33,500 1,116 Level FlightAware ADS-B
Wed 02:25:03 AM -30.3680 117.4040 22° Northeast 502 578 34,300 1,200 Climbing FlightAware ADS-B
Wed 02:25:43 AM -30.2820 117.4430 21° North 485 558 35,000 525 Climbing FlightAware ADS-B
Wed 02:26:23 AM -30.1960 117.4810 21° North 483 556 35,000  Level FlightAware ADS-B
Wed 02:27:03 AM -30.1130 117.5190 22° Northeast 483 556 35,000 78 Level FlightAware ADS-B
Wed 02:27:40 AM -30.0363 117.5528 22° Northeast 490 564 35,100  Climbing Aus ATC (RADAR)
Wed 02:27:47 AM -30.0190 117.5610 22° Northeast 482 555 35,000 -140 Descending FlightAware ADS-B
Wed 02:28:23 AM -29.9440 117.5940 21° North 480 552 35,000 164 Level FlightAware ADS-B
Wed 02:29:00 AM -29.8682 117.6287 21° North 488 562 35,200  Climbing Aus ATC (RADAR)
Wed 02:29:07 AM -29.8500 117.6360 21° North 486 559 35,000 -250 Descending FlightAware ADS-B
Wed 02:29:48 AM -29.7650 117.6750 22° Northeast 483 556 35,000  Level FlightAware ADS-B
Wed 02:30:33 AM -29.6720 117.7160 21° North 482 555 35,000  Level FlightAware ADS-B
Wed 02:31:08 AM -29.5980 117.7480 21° North 482 555 35,000  Level FlightAware ADS-B
Wed 02:31:53 AM -29.5050 117.7900 21° North 483 556 35,000  Level FlightAware ADS-B
Wed 02:32:37 AM -29.4110 117.8310 21° North 482 555 35,000  Level FlightAware ADS-B
Wed 02:33:18 AM -29.3280 117.8680 21° North 480 552 35,000 145 Level FlightAware ADS-B
Wed 02:34:00 AM -29.2434 117.9049 21° North 479 551 35,200  Climbing Aus ATC (RADAR)
Wed 02:34:02 AM -29.2340 117.9090 21° North 469 540 35,000 -279 Descending FlightAware ADS-B
Wed 02:34:43 AM -29.1540 117.9450 21° North 466 536 35,000  Level FlightAware ADS-B
Wed 02:35:22 AM -29.0720 117.9810 21° North 464 534 35,000  Level FlightAware ADS-B
Wed 02:36:03 AM -28.9910 118.0160 21° North 469 540 35,000 112 Level FlightAware ADS-B
Wed 02:37:09 AM -28.8549 118.0711 21° North 469 540 35,200  Climbing Aus ATC (RADAR)
Wed 02:37:23 AM -28.8490 118.0790 21° North 468 539 35,000  Descending FlightAware ADS-B
Wed 02:37:59 AM -28.7547 118.1171 21° North 468 539 35,200  Climbing Aus ATC (RADAR)
Wed 02:37:59 AM -28.7870 118.1060 21° North 468 539 35,000 -333 Descending FlightAware ADS-B
Wed 02:38:35 AM -28.7250 118.1330 21° North 468 539 35,000 71 Level FlightAware ADS-B
Wed 02:39:24 AM -28.5833 118.1908 21° North 465 535 35,100  Climbing Aus ATC (RADAR)
Wed 02:39:35 AM -28.6220 118.1780 21° North 468 539 35,000 -128 Descending FlightAware ADS-B
Wed 02:40:11 AM -28.5600 118.2050 21° North 468 539 35,000  Level FlightAware ADS-B
Wed 02:40:47 AM -28.4980 118.2320 21° North 468 539 35,000  Level FlightAware ADS-B
Wed 02:41:35 AM -28.4160 118.2680 21° North 468 539 35,000  Level FlightAware ADS-B
Wed 02:42:12 AM -28.3520 118.2960 21° North 468 539 35,000  Level FlightAware ADS-B
Wed 02:43:12 AM -28.2490 118.3410 21° North 468 539 35,000  Level FlightAware ADS-B
Wed 02:43:46 AM -28.1910 118.3660 21° North 468 539 35,000  Level FlightAware ADS-B
Wed 02:44:35 AM -28.1070 118.4030 21° North 468 539 35,000  Level FlightAware ADS-B
Wed 02:45:27 AM -28.0170 118.4410 20° North 468 539 35,000  Level FlightAware ADS-B
Wed 02:45:56 AM -27.8363 118.5201 201° Southwest 33,000  Descending Aus ATC (Calculated)
Wed 02:46:13 AM -27.9380 118.4760 20° North 468 539 35,000 -113 Climbing FlightAware ADS-B
Wed 02:46:25 AM -27.7691 118.5491 21° North 33,000 -235 Descending Aus ATC (Calculated)
Wed 02:48:00 AM -27.5895 118.6264 21° North  Level FlightAware Approximate
Wed 02:49:00 AM -27.4760 118.6751 21° North  Level FlightAware Approximate
Wed 02:50:00 AM -27.3624 118.7237 21° North  Level FlightAware Approximate
Wed 02:50:50 AM -27.2022 118.7922 21° North 33,000  Level Aus ATC (Calculated)
Wed 02:52:00 AM -27.0697 118.8486 21° North  Level FlightAware Approximate
Wed 02:53:00 AM -26.9561 118.8968 21° North  Level FlightAware Approximate
Wed 02:54:00 AM -26.8425 118.9450 21° North  Level FlightAware Approximate
Wed 02:54:05 AM -26.8469 118.9437 21° North 31,500  Level Aus ATC (Calculated)
Wed 02:56:00 AM -26.6286 119.0344 20° North  Level FlightAware Approximate
Wed 02:57:00 AM -26.7425 118.9872 200° South  Level FlightAware Approximate
Wed 02:58:00 AM -26.7271 118.9939 21° North  Level FlightAware Approximate
Wed 02:59:00 AM -26.6135 119.0421 21° North  Level FlightAware Approximate
Wed 02:59:05 AM -26.2468 119.1975 21° North 31,500  Level Aus ATC (Calculated)
Wed 03:01:00 AM -26.0290 119.2889 21° North  Level FlightAware Approximate
Wed 03:01:28 AM -25.9991 119.3014 20° North 31,500  Level Aus ATC (Calculated)
Wed 03:02:00 AM -25.9153 119.3365 21° North  Level FlightAware Approximate
Wed 03:02:47 AM -25.7089 119.4212 21° North 437 503 31,100  Level Aus ATC (RADAR)
Wed 03:03:42 AM -25.5952 119.4724 22° Northeast 466 536 31,100  Level Aus ATC (RADAR)
Wed 03:04:47 AM -25.4664 119.5237 20° North 458 527 31,100  Level Aus ATC (RADAR)
Wed 03:05:42 AM -25.3544 119.5714 21° North 464 534 31,100  Level Aus ATC (RADAR)
Wed 03:06:32 AM -25.2543 119.6132 21° North 463 533 31,100  Level Aus ATC (RADAR)
Wed 03:07:12 AM -25.1768 119.6438 20° North 452 520 31,100  Level Aus ATC (RADAR)
Wed 03:07:52 AM -25.0963 119.6779 21° North 459 528 31,100  Level Aus ATC (RADAR)
Wed 03:08:30 AM -25.0278 119.7056 20° North 455 524 31,100  Level Aus ATC (RADAR)
Wed 03:09:28 AM -24.9074 119.7488 18° North 459 528 31,100  Level Aus ATC (RADAR)
Wed 03:10:02 AM -24.8316 119.7551 North 473 544 31,100 -145 Level Aus ATC (RADAR)
Wed 03:10:51 AM -24.7302 119.7555 360° North 444 511 30,900 -2,077 Descending Aus ATC (RADAR)
Wed 03:11:46 AM -24.6137 119.7605 North 448 516 27,500 -3,347 Descending Aus ATC (RADAR)
Wed 03:12:26 AM -24.5257 119.7639 North 462 532 25,600 -2,824 Descending Aus ATC (RADAR)
Wed 03:13:11 AM -24.4308 119.7667 North 452 520 23,500 -2,775 Descending Aus ATC (RADAR)
Wed 03:13:46 AM -24.3569 119.7691 North 448 516 21,900 -2,589 Descending Aus ATC (RADAR)
Wed 03:14:46 AM -24.2332 119.7742 North 437 503 19,400 -2,564 Descending Aus ATC (RADAR)
Wed 03:15:36 AM -24.1337 119.7771 North 424 488 17,200 -2,571 Descending Aus ATC (RADAR)
Wed 03:16:31 AM -24.0313 119.7987 11° North 406 467 14,900 -2,509 Descending Aus ATC (RADAR)
Wed 03:19:48 AM -23.7844 119.8071 359° North 2,000 -3,929 Descending Aus ATC (Calculated)
Wed 03:21:00 AM -23.6387 119.8055 359° North  Level FlightAware Approximate
Wed 03:22:00 AM -23.5173 119.8041 359° North  Level FlightAware Approximate
Wed 03:22:47 AM -23.6028 119.8050 221° Southwest 2,000  Level Aus ATC (Calculated)
Wed 03:22:47 AM -23.6028 119.8050 359° North 2,000  Level Aus ATC (Calculated)
Wed 03:23:00 AM -23.4178 119.8028 359° North  Level Estimated
Wed 03:24:00 AM -23.4550 119.8034 359° North  Level FlightAware Approximate
Wed 03:25:00 AM -23.4178 119.8027 355° North  Level FlightAware Approximate
Wed 03:26:00 AM -23.4178 119.8027 355° North  Level FlightAware Approximate
Wed 03:27:00 AM -23.4178 119.8028 355° North  Level Estimated
Wed 03:28:00 AM -23.4178 119.8028 355° North  Level Estimated
Wed 03:29:00 AM -23.4178 119.8028 355° North  Level Estimated
Wed 03:30:00 AM -23.4178 119.8028 355° North  Level Estimated
Wed 03:31:00 AM -23.4178 119.8028 355° North  Level Estimated
Wed 03:32:00 AM -23.4178 119.8028 355° North  Level Estimated

Login

Don't have an account? Register now (free) for customized features, flight alerts, and more!